THY9961 LTBA-LTAC
Flight info
| Callsign | THY9961 |
|---|---|
| Flight time | 0h 36m |
| Altitude | 27000 |
| Route | VICEN1A/05 VICEN T380 ASMAP L333 LATGA |
| Aircraft | B77W/H-SDE1E2E3FGHIJ2J3J4J5M1RWXY/LB1D1 |
Departure
| Time | 2026-04-28 20:05 |
|---|---|
| Airport | İstanbul Atatürk Airport (LTBA) |
Arrival
| Time | 2026-04-28 20:41 |
|---|---|
| Airport | Esenboğa International Airport (LTAC) |
| Time | Latitude | Longitude | Altitude | Speed | Heading |
|---|---|---|---|---|---|
| 2026-04-28 19:46 | 40.97433 | 28.81719 | 122 ft | 0 kts | 168° |
| 2026-04-28 19:55 | 40.97444 | 28.81716 | 117 ft | 2 kts | 169° |
| 2026-04-28 19:55 | 40.97460 | 28.81712 | 117 ft | 2 kts | 170° |
| 2026-04-28 19:55 | 40.97476 | 28.81709 | 120 ft | 2 kts | 172° |
| 2026-04-28 19:56 | 40.97493 | 28.81706 | 118 ft | 2 kts | 178° |
| 2026-04-28 19:56 | 40.97509 | 28.81707 | 119 ft | 2 kts | 194° |
| 2026-04-28 19:56 | 40.97523 | 28.81718 | 119 ft | 2 kts | 248° |
| 2026-04-28 19:56 | 40.97525 | 28.81729 | 119 ft | 1 kts | 258° |
| 2026-04-28 20:01 | 40.97522 | 28.81708 | 117 ft | 9 kts | 258° |
| 2026-04-28 20:01 | 40.97506 | 28.81602 | 121 ft | 13 kts | 258° |
| 2026-04-28 20:01 | 40.97482 | 28.81473 | 119 ft | 16 kts | 251° |
| 2026-04-28 20:01 | 40.97465 | 28.81439 | 119 ft | 2 kts | 204° |
| 2026-04-28 20:02 | 40.97440 | 28.81437 | 120 ft | 7 kts | 182° |
| 2026-04-28 20:02 | 40.97358 | 28.81436 | 116 ft | 15 kts | 180° |
| 2026-04-28 20:02 | 40.97246 | 28.81439 | 115 ft | 17 kts | 179° |
| 2026-04-28 20:02 | 40.97111 | 28.81443 | 113 ft | 21 kts | 179° |
| 2026-04-28 20:03 | 40.96960 | 28.81419 | 110 ft | 23 kts | 213° |
| 2026-04-28 20:03 | 40.96890 | 28.81281 | 110 ft | 18 kts | 239° |
| 2026-04-28 20:03 | 40.96820 | 28.81130 | 109 ft | 20 kts | 238° |
| 2026-04-28 20:03 | 40.96743 | 28.80965 | 107 ft | 20 kts | 234° |
| 2026-04-28 20:04 | 40.96656 | 28.80925 | 107 ft | 13 kts | 165° |
| 2026-04-28 20:04 | 40.96594 | 28.81021 | 109 ft | 16 kts | 92° |
| 2026-04-28 20:04 | 40.96653 | 28.81191 | 109 ft | 34 kts | 58° |
| 2026-04-28 20:04 | 40.96935 | 28.81800 | 109 ft | 127 kts | 58° |
| 2026-04-28 20:05 | 40.97487 | 28.83007 | 586 ft | 169 kts | 58° |
| 2026-04-28 20:05 | 40.98156 | 28.84455 | 1368 ft | 199 kts | 59° |
| 2026-04-28 20:05 | 40.98887 | 28.86033 | 2353 ft | 214 kts | 58° |
| 2026-04-28 20:05 | 40.99721 | 28.87831 | 3000 ft | 246 kts | 58° |
| 2026-04-28 20:06 | 41.00651 | 28.89837 | 4109 ft | 254 kts | 57° |
| 2026-04-28 20:06 | 41.01574 | 28.91826 | 5438 ft | 259 kts | 56° |
| 2026-04-28 20:06 | 41.02520 | 28.93872 | 6612 ft | 267 kts | 56° |
| 2026-04-28 20:06 | 41.03508 | 28.96014 | 7799 ft | 274 kts | 56° |
| 2026-04-28 20:07 | 41.04516 | 28.98204 | 8971 ft | 281 kts | 56° |
| 2026-04-28 20:07 | 41.05198 | 28.99685 | 9768 ft | 285 kts | 56° |
| 2026-04-28 20:07 | 41.06622 | 29.02777 | 10981 ft | 309 kts | 56° |
| 2026-04-28 20:07 | 41.07784 | 29.05339 | 11354 ft | 341 kts | 60° |
| 2026-04-28 20:08 | 41.08450 | 29.08467 | 12114 ft | 365 kts | 86° |
| 2026-04-28 20:08 | 41.08057 | 29.11767 | 13430 ft | 374 kts | 111° |
| 2026-04-28 20:08 | 41.06616 | 29.14629 | 14752 ft | 379 kts | 137° |
| 2026-04-28 20:08 | 41.04537 | 29.16806 | 15933 ft | 383 kts | 144° |
| 2026-04-28 20:09 | 41.02553 | 29.19228 | 16904 ft | 396 kts | 130° |
| 2026-04-28 20:09 | 41.01081 | 29.22348 | 18105 ft | 405 kts | 115° |
| 2026-04-28 20:09 | 41.00087 | 29.25861 | 19243 ft | 410 kts | 108° |
| 2026-04-28 20:09 | 40.99208 | 29.29484 | 20342 ft | 417 kts | 107° |
| 2026-04-28 20:10 | 40.98366 | 29.33192 | 21460 ft | 423 kts | 106° |
| 2026-04-28 20:10 | 40.97521 | 29.36947 | 22639 ft | 427 kts | 106° |
| 2026-04-28 20:10 | 40.96653 | 29.40696 | 24058 ft | 423 kts | 107° |
| 2026-04-28 20:10 | 40.95767 | 29.44402 | 25333 ft | 420 kts | 107° |
| 2026-04-28 20:11 | 40.94860 | 29.48100 | 26348 ft | 422 kts | 107° |
| 2026-04-28 20:11 | 40.93943 | 29.51784 | 26995 ft | 423 kts | 107° |
| 2026-04-28 20:11 | 40.93029 | 29.55424 | 27135 ft | 422 kts | 107° |
| 2026-04-28 20:11 | 40.92096 | 29.59110 | 27134 ft | 422 kts | 108° |
| 2026-04-28 20:12 | 40.91163 | 29.62785 | 27141 ft | 422 kts | 108° |
| 2026-04-28 20:12 | 40.90227 | 29.66466 | 27134 ft | 422 kts | 108° |
| 2026-04-28 20:12 | 40.89292 | 29.70143 | 27135 ft | 422 kts | 108° |
| 2026-04-28 20:12 | 40.88661 | 29.72624 | 27137 ft | 422 kts | 108° |
| 2026-04-28 20:13 | 40.87423 | 29.77484 | 27140 ft | 422 kts | 108° |
| 2026-04-28 20:13 | 40.86485 | 29.81162 | 27147 ft | 422 kts | 108° |
| 2026-04-28 20:13 | 40.85548 | 29.84831 | 27152 ft | 422 kts | 108° |
| 2026-04-28 20:13 | 40.84610 | 29.88500 | 27154 ft | 422 kts | 108° |
| 2026-04-28 20:14 | 40.83664 | 29.92186 | 27148 ft | 422 kts | 108° |
| 2026-04-28 20:14 | 40.82722 | 29.95855 | 27147 ft | 421 kts | 108° |
| 2026-04-28 20:14 | 40.81794 | 29.99470 | 27154 ft | 421 kts | 108° |
| 2026-04-28 20:14 | 40.80851 | 30.03128 | 27155 ft | 421 kts | 108° |
| 2026-04-28 20:15 | 40.79907 | 30.06792 | 27156 ft | 421 kts | 108° |
| 2026-04-28 20:15 | 40.78963 | 30.10453 | 27162 ft | 421 kts | 108° |
| 2026-04-28 20:15 | 40.78016 | 30.14116 | 27155 ft | 421 kts | 108° |
| 2026-04-28 20:15 | 40.77069 | 30.17771 | 27160 ft | 421 kts | 108° |
| 2026-04-28 20:16 | 40.76120 | 30.21429 | 27159 ft | 421 kts | 108° |
| 2026-04-28 20:16 | 40.75171 | 30.25083 | 27152 ft | 421 kts | 108° |
| 2026-04-28 20:16 | 40.74221 | 30.28734 | 27154 ft | 420 kts | 108° |
| 2026-04-28 20:16 | 40.73271 | 30.32381 | 27145 ft | 420 kts | 108° |
| 2026-04-28 20:17 | 40.72319 | 30.36029 | 27140 ft | 420 kts | 108° |
| 2026-04-28 20:17 | 40.71369 | 30.39666 | 27143 ft | 420 kts | 108° |
| 2026-04-28 20:17 | 40.70418 | 30.43302 | 27143 ft | 420 kts | 108° |
| 2026-04-28 20:17 | 40.69465 | 30.46937 | 27135 ft | 419 kts | 108° |
| 2026-04-28 20:18 | 40.68513 | 30.50567 | 27143 ft | 419 kts | 108° |
| 2026-04-28 20:18 | 40.67883 | 30.52966 | 27141 ft | 419 kts | 108° |
| 2026-04-28 20:18 | 40.66616 | 30.57782 | 27134 ft | 419 kts | 108° |
| 2026-04-28 20:18 | 40.65660 | 30.61409 | 27133 ft | 419 kts | 108° |
| 2026-04-28 20:19 | 40.64703 | 30.65035 | 27133 ft | 419 kts | 108° |
| 2026-04-28 20:19 | 40.63744 | 30.68664 | 27134 ft | 419 kts | 108° |
| 2026-04-28 20:19 | 40.62822 | 30.72303 | 27129 ft | 418 kts | 105° |
| 2026-04-28 20:19 | 40.62022 | 30.75975 | 27134 ft | 418 kts | 104° |
| 2026-04-28 20:20 | 40.61252 | 30.79669 | 27136 ft | 417 kts | 104° |
| 2026-04-28 20:20 | 40.60490 | 30.83356 | 27122 ft | 417 kts | 104° |
| 2026-04-28 20:20 | 40.59726 | 30.87033 | 27133 ft | 416 kts | 104° |
| 2026-04-28 20:20 | 40.58965 | 30.90665 | 27135 ft | 416 kts | 104° |
| 2026-04-28 20:21 | 40.58192 | 30.94334 | 27126 ft | 417 kts | 104° |
| 2026-04-28 20:21 | 40.57413 | 30.98011 | 27133 ft | 417 kts | 104° |
| 2026-04-28 20:21 | 40.56630 | 31.01692 | 27129 ft | 417 kts | 104° |
| 2026-04-28 20:21 | 40.55846 | 31.05367 | 27127 ft | 417 kts | 104° |
| 2026-04-28 20:22 | 40.55061 | 31.09039 | 27123 ft | 417 kts | 104° |
| 2026-04-28 20:22 | 40.54276 | 31.12709 | 27128 ft | 417 kts | 104° |
| 2026-04-28 20:22 | 40.53493 | 31.16374 | 27121 ft | 416 kts | 104° |
| 2026-04-28 20:22 | 40.52707 | 31.20037 | 27124 ft | 416 kts | 104° |
| 2026-04-28 20:23 | 40.51920 | 31.23694 | 27123 ft | 415 kts | 104° |
| 2026-04-28 20:23 | 40.51133 | 31.27343 | 27121 ft | 415 kts | 104° |
| 2026-04-28 20:23 | 40.50345 | 31.30999 | 27121 ft | 415 kts | 104° |
| 2026-04-28 20:23 | 40.49557 | 31.34648 | 27121 ft | 415 kts | 104° |
| 2026-04-28 20:24 | 40.48768 | 31.38300 | 27110 ft | 415 kts | 104° |
| 2026-04-28 20:24 | 40.47978 | 31.41951 | 27099 ft | 415 kts | 104° |
| 2026-04-28 20:24 | 40.47199 | 31.45541 | 27102 ft | 414 kts | 104° |
| 2026-04-28 20:24 | 40.46410 | 31.49172 | 27097 ft | 413 kts | 104° |
| 2026-04-28 20:25 | 40.45619 | 31.52807 | 27099 ft | 413 kts | 105° |
| 2026-04-28 20:25 | 40.44829 | 31.56435 | 27090 ft | 413 kts | 104° |
| 2026-04-28 20:25 | 40.44041 | 31.60050 | 26940 ft | 413 kts | 105° |
| 2026-04-28 20:25 | 40.43243 | 31.63711 | 26387 ft | 417 kts | 105° |
| 2026-04-28 20:26 | 40.42447 | 31.67361 | 25924 ft | 414 kts | 105° |
| 2026-04-28 20:26 | 40.41655 | 31.70979 | 25463 ft | 411 kts | 105° |
| 2026-04-28 20:26 | 40.40869 | 31.74565 | 25001 ft | 408 kts | 105° |
| 2026-04-28 20:26 | 40.40087 | 31.78125 | 24556 ft | 404 kts | 105° |
| 2026-04-28 20:27 | 40.39309 | 31.81659 | 24115 ft | 401 kts | 105° |
| 2026-04-28 20:27 | 40.38537 | 31.85165 | 23661 ft | 400 kts | 105° |
| 2026-04-28 20:27 | 40.37767 | 31.88660 | 23140 ft | 397 kts | 105° |
| 2026-04-28 20:27 | 40.37003 | 31.92121 | 22667 ft | 394 kts | 105° |
| 2026-04-28 20:28 | 40.36244 | 31.95553 | 22334 ft | 388 kts | 105° |
| 2026-04-28 20:28 | 40.35482 | 31.98899 | 22123 ft | 378 kts | 106° |
| 2026-04-28 20:28 | 40.34737 | 32.02119 | 21647 ft | 360 kts | 106° |
| 2026-04-28 20:28 | 40.34016 | 32.05235 | 20643 ft | 354 kts | 106° |
| 2026-04-28 20:29 | 40.33279 | 32.08316 | 19576 ft | 351 kts | 110° |
| 2026-04-28 20:29 | 40.32304 | 32.11190 | 18561 ft | 351 kts | 120° |
| 2026-04-28 20:29 | 40.31102 | 32.13936 | 17515 ft | 345 kts | 121° |
| 2026-04-28 20:29 | 40.29912 | 32.16642 | 16407 ft | 341 kts | 120° |
| 2026-04-28 20:30 | 40.28736 | 32.19326 | 15694 ft | 339 kts | 120° |
| 2026-04-28 20:30 | 40.27566 | 32.22002 | 15265 ft | 338 kts | 120° |
| 2026-04-28 20:30 | 40.26404 | 32.24667 | 14843 ft | 337 kts | 120° |
| 2026-04-28 20:30 | 40.25243 | 32.27331 | 14439 ft | 336 kts | 120° |
| 2026-04-28 20:31 | 40.24088 | 32.29986 | 14031 ft | 336 kts | 120° |
| 2026-04-28 20:31 | 40.22934 | 32.32636 | 13593 ft | 335 kts | 120° |
| 2026-04-28 20:31 | 40.21779 | 32.35289 | 13137 ft | 334 kts | 120° |
| 2026-04-28 20:31 | 40.20630 | 32.37926 | 12725 ft | 332 kts | 121° |
| 2026-04-28 20:32 | 40.19491 | 32.40540 | 12329 ft | 331 kts | 121° |
| 2026-04-28 20:32 | 40.18353 | 32.43148 | 11915 ft | 329 kts | 121° |
| 2026-04-28 20:32 | 40.17234 | 32.45714 | 11541 ft | 328 kts | 121° |
| 2026-04-28 20:32 | 40.16102 | 32.48308 | 11123 ft | 327 kts | 121° |
| 2026-04-28 20:33 | 40.14969 | 32.50893 | 10711 ft | 326 kts | 121° |
| 2026-04-28 20:33 | 40.13844 | 32.53461 | 10315 ft | 325 kts | 121° |
| 2026-04-28 20:33 | 40.12748 | 32.55959 | 10165 ft | 315 kts | 121° |
| 2026-04-28 20:33 | 40.11677 | 32.58406 | 10002 ft | 306 kts | 122° |
| 2026-04-28 20:34 | 40.10622 | 32.60813 | 9658 ft | 305 kts | 122° |
| 2026-04-28 20:34 | 40.09599 | 32.63143 | 9286 ft | 283 kts | 122° |
| 2026-04-28 20:34 | 40.08639 | 32.65323 | 8618 ft | 275 kts | 121° |
| 2026-04-28 20:34 | 40.07704 | 32.67450 | 8112 ft | 268 kts | 121° |
| 2026-04-28 20:35 | 40.07085 | 32.68852 | 7761 ft | 271 kts | 121° |
| 2026-04-28 20:35 | 40.05814 | 32.71736 | 7237 ft | 278 kts | 121° |
| 2026-04-28 20:35 | 40.05140 | 32.73183 | 7015 ft | 278 kts | 124° |
| 2026-04-28 20:35 | 40.04008 | 32.75245 | 6688 ft | 279 kts | 127° |
| 2026-04-28 20:36 | 40.02881 | 32.77204 | 6563 ft | 257 kts | 127° |
| 2026-04-28 20:36 | 40.01861 | 32.78985 | 6423 ft | 231 kts | 127° |
| 2026-04-28 20:36 | 40.00974 | 32.80562 | 6395 ft | 209 kts | 126° |
| 2026-04-28 20:36 | 40.00129 | 32.82069 | 6268 ft | 198 kts | 127° |
| 2026-04-28 20:37 | 39.99391 | 32.83481 | 6144 ft | 183 kts | 114° |
| 2026-04-28 20:37 | 39.99233 | 32.85079 | 6136 ft | 181 kts | 82° |
| 2026-04-28 20:37 | 39.99780 | 32.86543 | 5972 ft | 182 kts | 47° |
| 2026-04-28 20:37 | 40.00674 | 32.87709 | 5716 ft | 180 kts | 42° |
| 2026-04-28 20:38 | 40.01568 | 32.88797 | 5549 ft | 170 kts | 41° |
| 2026-04-28 20:38 | 40.02460 | 32.89774 | 5339 ft | 160 kts | 37° |
| 2026-04-28 20:38 | 40.03307 | 32.90604 | 5110 ft | 144 kts | 36° |
| 2026-04-28 20:38 | 40.04094 | 32.91355 | 4946 ft | 139 kts | 35° |
| 2026-04-28 20:39 | 40.04884 | 32.92109 | 4778 ft | 142 kts | 36° |
| 2026-04-28 20:39 | 40.05681 | 32.92867 | 4575 ft | 141 kts | 36° |
| 2026-04-28 20:39 | 40.06462 | 32.93612 | 4362 ft | 138 kts | 36° |
| 2026-04-28 20:39 | 40.07205 | 32.94320 | 4167 ft | 126 kts | 36° |
| 2026-04-28 20:40 | 40.07884 | 32.94967 | 3974 ft | 116 kts | 36° |
| 2026-04-28 20:40 | 40.08517 | 32.95570 | 3830 ft | 113 kts | 36° |
| 2026-04-28 20:40 | 40.09167 | 32.96189 | 3718 ft | 118 kts | 36° |
| 2026-04-28 20:40 | 40.09841 | 32.96821 | 3480 ft | 118 kts | 35° |
| 2026-04-28 20:41 | 40.10498 | 32.97448 | 3297 ft | 114 kts | 36° |
| 2026-04-28 20:41 | 40.11149 | 32.98070 | 3180 ft | 114 kts | 36° |
| 2026-04-28 20:41 | 40.11733 | 32.98627 | 3117 ft | 75 kts | 36° |
| 2026-04-28 20:41 | 40.11906 | 32.98825 | 3119 ft | 14 kts | 79° |
| 2026-04-28 20:42 | 40.11863 | 32.98936 | 3119 ft | 15 kts | 127° |
| 2026-04-28 20:42 | 40.11795 | 32.99055 | 3118 ft | 17 kts | 126° |
| 2026-04-28 20:42 | 40.11717 | 32.99166 | 3118 ft | 17 kts | 100° |
| 2026-04-28 20:42 | 40.11751 | 32.99319 | 3118 ft | 18 kts | 70° |
| 2026-04-28 20:43 | 40.11780 | 32.99476 | 3118 ft | 18 kts | 83° |
| 2026-04-28 20:43 | 40.11777 | 32.99612 | 3118 ft | 8 kts | 127° |
| 2026-04-28 20:43 | 40.11728 | 32.99621 | 3118 ft | 7 kts | 181° |
| 2026-04-28 20:43 | 40.11716 | 32.99621 | 3118 ft | 0 kts | 181° |
| 2026-04-28 20:44 | 40.11713 | 32.99621 | 3118 ft | 2 kts | 181° |
| 2026-04-28 20:44 | 40.11708 | 32.99621 | 3118 ft | 0 kts | 181° |
| 2026-04-28 20:44 | 40.11709 | 32.99621 | 3118 ft | 0 kts | 181° |